Time;durP1;ratioP1;P1;durP2;ratioP2;P2;SDS_P1;SDS_P2;PMS_P1;PMS_P2;Temp;Humidity;BMP_temperature;BMP_pressure;BME280_temperature;BME280_humidity;BME280_pressure;Samples;Min_cycle;Max_cycle;Signal;HPM_P1;HPM_P2
2022/12/12 04:59:03;;;;;;;1.50;1.42;;;18.30;99.80;;;;;;5573238;23;20241;-71
2022/12/12 05:01:38;;;;;;;1.70;1.63;;;18.30;99.80;;;;;;4996446;28;20225;-70
2022/12/12 05:04:09;;;;;;;1.77;1.50;;;18.30;99.90;;;;;;4996382;28;20216;-69
2022/12/12 05:06:41;;;;;;;1.88;1.23;;;18.30;99.90;;;;;;4996070;28;20634;-72
2022/12/12 05:09:10;;;;;;;3.03;1.50;;;18.30;99.90;;;;;;4995923;28;20589;-72
2022/12/12 05:11:37;;;;;;;2.15;1.30;;;18.30;99.90;;;;;;4996791;28;20202;-71
2022/12/12 05:14:07;;;;;;;2.45;1.00;;;18.30;99.90;;;;;;4996164;28;20209;-71
2022/12/12 05:16:40;;;;;;;1.50;1.40;;;18.40;99.90;;;;;;4996147;28;20198;-71
2022/12/12 05:19:07;;;;;;;2.08;1.40;;;18.40;99.90;;;;;;4996024;28;20222;-69
2022/12/12 05:21:33;;;;;;;3.08;1.05;;;18.40;99.90;;;;;;4996055;28;20206;-71
2022/12/12 05:24:00;;;;;;;1.25;1.15;;;18.40;99.90;;;;;;4995624;28;20697;-71
2022/12/12 05:26:29;;;;;;;0.80;0.80;;;18.40;99.90;;;;;;4995975;28;20202;-70
2022/12/12 05:28:56;;;;;;;5.97;1.80;;;18.40;99.90;;;;;;4995864;28;20226;-69
2022/12/12 05:31:24;;;;;;;6.03;3.97;;;18.40;99.90;;;;;;4995862;28;20202;-70
2022/12/12 05:33:51;;;;;;;18.40;5.18;;;18.30;99.80;;;;;;4996068;28;20202;-70
2022/12/12 05:36:18;;;;;;;14.50;4.60;;;18.40;98.90;;;;;;4995901;28;20198;-70
2022/12/12 05:38:45;;;;;;;17.25;5.45;;;18.30;98.50;;;;;;4995905;28;20222;-71
2022/12/12 05:41:12;;;;;;;18.13;4.63;;;18.30;98.30;;;;;;4995765;28;20209;-71
2022/12/12 05:43:39;;;;;;;11.77;5.20;;;18.30;98.40;;;;;;4995927;28;20226;-73
2022/12/12 05:46:06;;;;;;;20.75;4.93;;;18.20;98.60;;;;;;4995597;28;20205;-72
2022/12/12 05:48:34;;;;;;;19.33;4.82;;;18.30;98.60;;;;;;4995473;28;20257;-72
2022/12/12 05:51:01;;;;;;;18.67;4.80;;;18.30;99.20;;;;;;4995183;28;20208;-72
2022/12/12 05:53:29;;;;;;;11.32;5.25;;;18.40;98.90;;;;;;4995428;28;20202;-72
2022/12/12 05:55:56;;;;;;;22.10;5.45;;;18.40;98.30;;;;;;4995351;28;20561;-73
2022/12/12 05:58:23;;;;;;;11.70;5.80;;;18.20;97.20;;;;;;4994964;28;20729;-72
2022/12/12 06:00:50;;;;;;;18.27;5.80;;;18.20;96.60;;;;;;4995108;28;20286;-72
2022/12/12 06:03:18;;;;;;;21.20;6.00;;;18.20;95.90;;;;;;4995524;28;20203;-72
2022/12/12 06:05:46;;;;;;;17.80;5.68;;;18.20;96.10;;;;;;4995192;28;20210;-72
2022/12/12 06:08:13;;;;;;;16.52;6.28;;;18.20;96.10;;;;;;4995079;28;20222;-72
2022/12/12 06:10:39;;;;;;;12.48;5.70;;;18.10;94.40;;;;;;4995150;28;20204;-72
2022/12/12 06:13:06;;;;;;;15.65;6.25;;;18.10;94.40;;;;;;4995048;28;20208;-72
2022/12/12 06:15:33;;;;;;;16.63;9.48;;;18.20;93.50;;;;;;4994692;28;20666;-72
2022/12/12 06:18:00;;;;;;;17.40;11.43;;;17.50;71.10;;;;;;4994582;28;20206;-72
2022/12/12 06:20:29;;;;;;;14.10;8.65;;;16.30;58.30;;;;;;4994636;28;20293;-71
2022/12/12 06:22:57;;;;;;;16.85;6.82;;;15.20;54.10;;;;;;4995058;28;20202;-72
2022/12/12 06:25:24;;;;;;;15.02;6.47;;;15.30;69.10;;;;;;4994866;28;20198;-72
2022/12/12 06:27:51;;;;;;;13.13;6.18;;;15.90;76.40;;;;;;4994745;28;20229;-72
2022/12/12 06:30:18;;;;;;;22.70;6.85;;;16.50;79.70;;;;;;4994786;28;20202;-72
2022/12/12 06:32:45;;;;;;;19.75;6.00;;;16.90;80.80;;;;;;4994739;28;20209;-72
2022/12/12 06:35:12;;;;;;;17.88;6.57;;;17.30;81.40;;;;;;4994741;28;20215;-72
2022/12/12 06:37:39;;;;;;;10.65;6.13;;;17.40;81.70;;;;;;4994634;28;20206;-72
2022/12/12 06:40:09;;;;;;;13.68;6.30;;;17.60;81.90;;;;;;4994531;28;20226;-72
2022/12/12 06:42:35;;;;;;;19.30;5.47;;;17.70;81.90;;;;;;4994542;28;20206;-72
2022/12/12 06:45:02;;;;;;;9.82;4.78;;;17.80;82.90;;;;;;4994458;28;20222;-72
2022/12/12 06:47:29;;;;;;;7.10;5.18;;;17.90;83.40;;;;;;4994220;28;20233;-72
2022/12/12 06:49:56;;;;;;;11.93;5.18;;;17.90;83.90;;;;;;4994431;28;20227;-72
2022/12/12 06:52:22;;;;;;;12.15;5.97;;;18.00;84.40;;;;;;4994450;28;20207;-72
2022/12/12 06:54:49;;;;;;;9.05;5.47;;;18.00;84.60;;;;;;4994426;28;20214;-72
2022/12/12 06:57:17;;;;;;;8.98;5.22;;;18.00;85.80;;;;;;4994411;28;20229;-72
2022/12/12 06:59:44;;;;;;;9.65;5.32;;;18.10;86.90;;;;;;4993966;28;20235;-72
2022/12/12 07:02:12;;;;;;;13.80;5.40;;;18.10;88.50;;;;;;4993913;28;20214;-72
2022/12/12 07:04:38;;;;;;;6.05;4.90;;;18.10;85.30;;;;;;4993675;28;20707;-72
2022/12/12 07:07:05;;;;;;;12.20;4.80;;;18.10;85.60;;;;;;4994288;28;20206;-72
2022/12/12 07:09:32;;;;;;;9.85;4.70;;;18.20;90.30;;;;;;4994171;28;20230;-72
2022/12/12 07:11:59;;;;;;;11.27;4.65;;;18.10;84.50;;;;;;4997773;28;20212;-72
2022/12/12 07:14:27;;;;;;;9.13;4.03;;;18.20;84.10;;;;;;4994183;28;20198;-72
2022/12/12 07:16:54;;;;;;;18.85;5.13;;;18.20;83.20;;;;;;4994207;28;20209;-71
2022/12/12 07:19:22;;;;;;;18.60;5.40;;;18.20;83.30;;;;;;4993829;28;20717;-71
2022/12/12 07:21:49;;;;;;;17.80;4.78;;;18.10;82.80;;;;;;4994161;28;20201;-73
2022/12/12 07:24:15;;;;;;;13.75;4.68;;;18.20;83.40;;;;;;4994071;28;20221;-72
2022/12/12 07:26:42;;;;;;;20.60;4.60;;;18.20;83.60;;;;;;4994109;28;20206;-74
2022/12/12 07:29:09;;;;;;;20.92;5.43;;;18.20;83.50;;;;;;4994096;28;20249;-74
2022/12/12 07:31:37;;;;;;;14.68;5.32;;;18.10;83.40;;;;;;4994301;28;20217;-74
2022/12/12 07:34:04;;;;;;;13.68;4.75;;;18.10;82.30;;;;;;4994094;28;20209;-74
2022/12/12 07:36:30;;;;;;;16.92;5.05;;;18.00;81.40;;;;;;4994130;28;20210;-75
2022/12/12 07:38:57;;;;;;;12.48;5.32;;;17.90;81.30;;;;;;4993603;28;20601;-74
2022/12/12 07:41:24;;;;;;;13.07;4.93;;;17.90;81.90;;;;;;4994003;28;20202;-72
2022/12/12 07:43:51;;;;;;;18.73;5.22;;;17.90;82.40;;;;;;4993904;28;20222;-75
2022/12/12 07:46:20;;;;;;;15.77;5.53;;;17.90;82.50;;;;;;4993663;28;20234;-75
2022/12/12 07:48:49;;;;;;;18.88;5.35;;;17.90;82.60;;;;;;4993547;28;20705;-70
2022/12/12 07:51:19;;;;;;;11.07;4.65;;;17.90;83.30;;;;;;4993895;28;20203;-70
2022/12/12 07:53:46;;;;;;;28.20;5.57;;;17.90;84.00;;;;;;4993599;28;20649;-73
2022/12/12 07:56:15;;;;;;;22.42;5.28;;;17.90;84.40;;;;;;4993981;28;20202;-73
2022/12/12 07:58:42;;;;;;;14.02;5.45;;;18.00;85.90;;;;;;4993759;28;20696;-73
2022/12/12 08:01:11;;;;;;;18.10;5.68;;;18.00;87.10;;;;;;4993666;28;20206;-73
2022/12/12 08:03:38;;;;;;;18.30;5.47;;;18.00;91.60;;;;;;4993710;28;20231;-73
2022/12/12 08:06:07;;;;;;;16.77;5.13;;;18.00;85.10;;;;;;4993745;28;20326;-73
2022/12/12 08:08:34;;;;;;;14.80;4.82;;;18.00;84.70;;;;;;4993725;28;20223;-73
2022/12/12 08:11:05;;;;;;;14.93;5.30;;;18.00;85.00;;;;;;4993806;28;20207;-73
2022/12/12 08:13:34;;;;;;;15.48;4.80;;;18.00;86.20;;;;;;4994068;28;20179;-73
2022/12/12 08:16:01;;;;;;;12.50;5.05;;;18.00;85.70;;;;;;4996008;28;20210;-73
2022/12/12 08:18:28;;;;;;;13.48;5.03;;;18.00;87.50;;;;;;4996850;28;20710;-73
2022/12/12 08:20:55;;;;;;;11.68;4.63;;;18.00;88.70;;;;;;4997202;28;20209;-73
2022/12/12 08:23:23;;;;;;;11.38;4.95;;;18.00;86.00;;;;;;4997017;28;20202;-73
2022/12/12 08:25:50;;;;;;;19.63;5.25;;;18.10;87.00;;;;;;4997100;28;20206;-73
2022/12/12 08:28:17;;;;;;;10.45;4.93;;;18.00;88.60;;;;;;4997249;28;20237;-73
2022/12/12 08:30:48;;;;;;;14.77;4.38;;;18.00;90.40;;;;;;4997009;28;20229;-73
2022/12/12 08:33:15;;;;;;;9.63;4.72;;;18.00;80.70;;;;;;4996993;28;20183;-73
2022/12/12 08:35:42;;;;;;;22.30;5.65;;;18.00;81.00;;;;;;4996827;28;20206;-73
2022/12/12 08:38:08;;;;;;;19.52;5.68;;;18.00;81.10;;;;;;4996732;28;20201;-73
2022/12/12 08:40:36;;;;;;;9.98;4.00;;;18.00;80.80;;;;;;4997057;28;20203;-73
2022/12/12 08:43:03;;;;;;;21.35;5.40;;;18.00;81.10;;;;;;4996490;28;20542;-73
2022/12/12 08:45:30;;;;;;;17.38;5.10;;;18.00;81.20;;;;;;4996381;28;20701;-73
2022/12/12 08:47:57;;;;;;;20.45;5.07;;;18.00;81.50;;;;;;4996659;28;20206;-73
2022/12/12 08:50:24;;;;;;;10.10;4.97;;;18.10;81.80;;;;;;4996641;28;20202;-73
2022/12/12 08:52:51;;;;;;;13.20;4.70;;;18.10;81.90;;;;;;4996629;28;20210;-73
2022/12/12 08:55:19;;;;;;;11.98;5.18;;;18.10;82.10;;;;;;4996603;28;20222;-73
2022/12/12 08:57:47;;;;;;;9.68;4.22;;;18.00;82.30;;;;;;4996240;28;20217;-73
2022/12/12 09:00:15;;;;;;;13.95;4.72;;;18.10;82.70;;;;;;4996347;28;20222;-73
2022/12/12 09:02:41;;;;;;;12.77;4.47;;;18.00;83.20;;;;;;4996339;28;20709;-73
2022/12/12 09:05:09;;;;;;;9.32;4.32;;;18.10;84.00;;;;;;4996590;28;20226;-73
2022/12/12 09:07:36;;;;;;;9.10;4.43;;;18.00;88.40;;;;;;4996318;28;20202;-73
2022/12/12 09:10:03;;;;;;;12.70;4.47;;;18.10;80.10;;;;;;4996179;28;20226;-73
2022/12/12 09:12:30;;;;;;;5.63;4.13;;;18.00;80.00;;;;;;4996266;28;20204;-73
2022/12/12 09:14:58;;;;;;;7.32;3.80;;;18.00;80.30;;;;;;4996185;28;20205;-73
2022/12/12 09:17:25;;;;;;;9.82;4.40;;;18.00;80.50;;;;;;4995868;28;20674;-73
2022/12/12 09:19:52;;;;;;;13.70;4.65;;;18.10;80.60;;;;;;4996267;28;20337;-73
2022/12/12 09:22:19;;;;;;;8.35;4.53;;;18.20;80.80;;;;;;4995763;28;20666;-73
2022/12/12 09:24:45;;;;;;;14.85;4.95;;;18.10;81.00;;;;;;4995931;28;20297;-73
2022/12/12 09:27:12;;;;;;;9.75;4.70;;;18.00;81.10;;;;;;4995309;28;20213;-73
2022/12/12 09:29:39;;;;;;;7.35;4.18;;;18.10;81.10;;;;;;4996109;28;20222;-73
2022/12/12 09:32:08;;;;;;;14.50;4.65;;;18.10;81.20;;;;;;4995585;28;20247;-73
2022/12/12 09:34:36;;;;;;;15.40;4.32;;;18.10;81.50;;;;;;4995859;28;20199;-73
2022/12/12 09:37:04;;;;;;;4.85;4.07;;;18.10;81.50;;;;;;4995777;28;20206;-73
2022/12/12 09:39:31;;;;;;;14.90;4.38;;;18.00;81.60;;;;;;4995661;28;20312;-73
2022/12/12 09:41:58;;;;;;;7.32;4.85;;;18.10;82.00;;;;;;4995659;28;20203;-73
2022/12/12 09:44:26;;;;;;;11.00;4.88;;;18.10;82.30;;;;;;4995607;28;20222;-73
2022/12/12 09:46:56;;;;;;;9.77;4.40;;;18.00;82.40;;;;;;4995557;28;20206;-73
2022/12/12 09:49:29;;;;;;;14.50;4.45;;;18.00;82.60;;;;;;4995680;28;20249;-73
2022/12/12 09:51:57;;;;;;;8.23;4.18;;;18.10;83.00;;;;;;4995545;28;20266;-73
2022/12/12 09:54:26;;;;;;;12.43;4.30;;;18.00;83.10;;;;;;4995432;28;20221;-73
2022/12/12 09:57:04;;;;;;;7.13;4.55;;;18.10;83.40;;;;;;4995376;28;20202;-73
2022/12/12 09:59:38;;;;;;;11.75;4.40;;;18.00;83.50;;;;;;4995317;28;20226;-73
2022/12/12 10:02:25;;;;;;;9.18;4.53;;;18.20;83.90;;;;;;4995177;28;20224;-73
2022/12/12 10:05:00;;;;;;;12.05;4.20;;;18.10;84.00;;;;;;4994889;28;20681;-73
2022/12/12 10:07:34;;;;;;;9.95;4.30;;;18.00;84.10;;;;;;4995258;28;20560;-73
2022/12/12 10:10:08;;;;;;;14.65;4.93;;;18.10;84.80;;;;;;4995121;28;20226;-73
2022/12/12 10:12:36;;;;;;;25.48;11.15;;;18.00;84.40;;;;;;4995115;28;20189;-72
2022/12/12 10:15:06;;;;;;;18.83;9.65;;;17.80;77.10;;;;;;4995061;28;20213;-72
2022/12/12 10:17:37;;;;;;;13.55;8.60;;;17.30;74.50;;;;;;4994661;28;20693;-72
2022/12/12 10:20:14;;;;;;;17.27;7.68;;;17.10;73.20;;;;;;4994965;28;20646;-72
2022/12/12 10:22:48;;;;;;;17.17;8.68;;;17.20;80.80;;;;;;4994934;28;20190;-73
2022/12/12 10:25:20;;;;;;;17.10;8.18;;;17.40;68.50;;;;;;4994867;28;20214;-72
2022/12/12 10:27:50;;;;;;;16.77;8.00;;;17.60;68.40;;;;;;4994921;28;20193;-72
2022/12/12 10:30:19;;;;;;;17.13;7.88;;;17.80;67.70;;;;;;4994548;28;20573;-72
2022/12/12 10:33:01;;;;;;;16.48;7.78;;;17.90;67.90;;;;;;4994649;28;20209;-72
2022/12/12 10:35:37;;;;;;;17.88;7.93;;;18.20;68.90;;;;;;4994477;28;20187;-72
2022/12/12 10:38:12;;;;;;;17.35;7.80;;;;;;;;;;4993403;28;20190;-72
2022/12/12 10:40:49;;;;;;;11.68;7.45;;;18.60;60.60;;;;;;4994703;28;20273;-72
2022/12/12 10:43:21;;;;;;;13.15;7.28;;;18.70;60.90;;;;;;4994677;28;20191;-72
2022/12/12 10:46:05;;;;;;;12.98;6.22;;;18.70;61.20;;;;;;4994563;28;20206;-72
2022/12/12 10:48:32;;;;;;;11.88;7.40;;;18.90;61.50;;;;;;4994482;28;20232;-72
2022/12/12 10:51:03;;;;;;;13.25;6.90;;;18.90;61.20;;;;;;4994514;28;20202;-72
2022/12/12 10:53:31;;;;;;;10.05;6.80;;;19.00;60.70;;;;;;4995029;28;20190;-72
2022/12/12 10:56:02;;;;;;;16.35;6.35;;;19.10;60.70;;;;;;4994619;28;20248;-72
2022/12/12 10:58:37;;;;;;;15.65;6.88;;;19.10;60.50;;;;;;4994418;28;20693;-72
2022/12/12 11:01:10;;;;;;;15.25;5.85;;;19.20;60.70;;;;;;4994372;28;20206;-72
2022/12/12 11:03:41;;;;;;;12.80;6.07;;;19.20;59.60;;;;;;4994395;28;20229;-72
2022/12/12 11:06:14;;;;;;;12.65;6.00;;;19.30;59.30;;;;;;4994558;28;20206;-72
2022/12/12 11:08:53;;;;;;;7.45;5.53;;;19.30;58.90;;;;;;4993930;28;20592;-72
2022/12/12 11:11:21;;;;;;;11.23;6.22;;;19.40;58.80;;;;;;4994525;28;20708;-72
2022/12/12 11:13:51;;;;;;;7.05;5.03;;;19.40;58.70;;;;;;4994287;28;20213;-73
2022/12/12 11:16:22;;;;;;;17.95;6.07;;;19.50;58.50;;;;;;4995084;28;20201;-75
2022/12/12 11:19:04;;;;;;;10.68;5.82;;;19.50;58.40;;;;;;4994165;28;20655;-75
2022/12/12 11:21:34;;;;;;;12.68;5.60;;;19.60;58.40;;;;;;4994009;28;20660;-75
2022/12/12 11:24:07;;;;;;;11.25;6.22;;;19.60;58.30;;;;;;4993878;28;20202;-75
2022/12/12 11:26:42;;;;;;;21.77;6.20;;;19.60;58.30;;;;;;4994221;28;20202;-75
2022/12/12 11:29:25;;;;;;;15.25;6.28;;;19.70;58.40;;;;;;4993793;28;20225;-75
2022/12/12 11:31:52;;;;;;;11.40;5.63;;;19.70;58.30;;;;;;4994125;28;20194;-75
2022/12/12 11:34:22;;;;;;;15.85;6.32;;;19.70;58.30;;;;;;4994087;28;20202;-76
2022/12/12 11:36:50;;;;;;;14.48;6.03;;;19.70;58.30;;;;;;4994033;28;20202;-76
2022/12/12 11:39:25;;;;;;;10.60;5.65;;;19.70;58.10;;;;;;4995431;28;20218;-76
2022/12/12 11:42:01;;;;;;;15.02;6.03;;;19.70;58.00;;;;;;4994920;28;20273;-75
2022/12/12 11:44:33;;;;;;;12.40;5.50;;;19.60;57.90;;;;;;4993864;28;20210;-76
2022/12/12 11:47:23;;;;;;;13.57;5.65;;;19.60;57.80;;;;;;4993983;28;20237;-75
2022/12/12 11:49:52;;;;;;;8.73;5.85;;;19.50;57.70;;;;;;4995615;28;20705;-75
2022/12/12 11:52:22;;;;;;;9.65;5.78;;;19.50;57.70;;;;;;4997725;28;20206;-75
2022/12/12 11:54:49;;;;;;;8.13;5.22;;;19.40;57.60;;;;;;4997941;28;20194;-76
2022/12/12 11:57:28;;;;;;;10.20;5.07;;;19.30;57.50;;;;;;4997627;28;20202;-76
2022/12/12 12:00:05;;;;;;;10.20;5.18;;;19.30;57.60;;;;;;4997782;28;20226;-74
2022/12/12 12:03:04;;;;;;;12.15;5.60;;;19.20;57.60;;;;;;4997525;28;20624;-71
2022/12/12 12:05:41;;;;;;;9.85;5.47;;;19.20;57.70;;;;;;4997663;28;20214;-72
2022/12/12 12:08:23;;;;;;;13.23;5.70;;;19.10;57.70;;;;;;4997413;28;20193;-72
2022/12/12 12:11:01;;;;;;;17.42;5.07;;;19.00;57.70;;;;;;4997420;28;20197;-72
2022/12/12 12:13:43;;;;;;;9.07;4.88;;;18.90;57.90;;;;;;4997660;28;20187;-72
2022/12/12 12:16:17;;;;;;;6.03;4.97;;;18.80;58.10;;;;;;4997357;28;20182;-72
2022/12/12 12:18:56;;;;;;;13.15;5.93;;;18.70;58.50;;;;;;4996859;28;20743;-72
2022/12/12 12:21:35;;;;;;;10.15;5.70;;;18.70;58.80;;;;;;4997511;28;20194;-72
2022/12/12 12:24:19;;;;;;;9.05;4.85;;;18.60;59.10;;;;;;4997206;28;20194;-72
2022/12/12 12:26:55;;;;;;;8.52;5.45;;;18.60;59.30;;;;;;4997068;28;20210;-71
2022/12/12 12:29:45;;;;;;;6.35;5.03;;;18.50;59.40;;;;;;4997031;28;20233;-70
2022/12/12 12:32:19;;;;;;;9.35;5.72;;;18.50;59.50;;;;;;4997103;28;20190;-70
2022/12/12 12:34:57;;;;;;;5.38;4.88;;;18.40;59.40;;;;;;4997198;28;20197;-70
2022/12/12 12:37:34;;;;;;;11.40;5.45;;;18.40;59.50;;;;;;4997219;28;20194;-70
2022/12/12 12:40:16;;;;;;;6.40;5.00;;;18.40;59.60;;;;;;4996509;28;20608;-70
2022/12/12 12:43:09;;;;;;;12.00;4.80;;;18.40;59.60;;;;;;4996574;28;20198;-70
2022/12/12 12:45:45;;;;;;;8.20;5.03;;;18.40;59.70;;;;;;4996921;28;20202;-70
2022/12/12 12:48:18;;;;;;;7.45;5.20;;;18.30;59.60;;;;;;4996432;28;20253;-69
2022/12/12 12:50:49;;;;;;;5.95;4.78;;;18.40;59.60;;;;;;4996706;28;20186;-68
2022/12/12 12:53:26;;;;;;;9.15;4.68;;;18.30;59.60;;;;;;4996327;28;20642;-68
2022/12/12 12:55:59;;;;;;;7.78;4.95;;;18.30;59.60;;;;;;4996679;28;20186;-68
2022/12/12 12:58:32;;;;;;;8.00;4.70;;;18.30;59.70;;;;;;4996480;28;20230;-68
2022/12/12 13:01:04;;;;;;;9.05;4.57;;;18.30;59.70;;;;;;4995673;28;20211;-69
2022/12/12 13:03:37;;;;;;;7.40;5.18;;;18.30;59.70;;;;;;4996450;28;20209;-69
2022/12/12 13:06:10;;;;;;;6.35;4.80;;;18.20;59.70;;;;;;4996560;28;20210;-69
2022/12/12 13:08:47;;;;;;;9.60;4.57;;;18.20;59.90;;;;;;4996569;28;20226;-70
2022/12/12 13:11:21;;;;;;;5.75;4.57;;;18.10;59.80;;;;;;4996329;28;20186;-69
2022/12/12 13:13:50;;;;;;;9.50;4.82;;;18.10;59.80;;;;;;4996285;28;20187;-69
2022/12/12 13:16:20;;;;;;;7.07;4.55;;;18.10;59.80;;;;;;4996181;28;20206;-69
2022/12/12 13:18:54;;;;;;;10.65;5.00;;;18.10;59.80;;;;;;4996102;28;20245;-69
2022/12/12 13:21:29;;;;;;;5.20;4.45;;;18.10;59.80;;;;;;4996396;28;20198;-69
2022/12/12 13:24:03;;;;;;;5.60;4.50;;;18.10;59.80;;;;;;4996082;28;20190;-69
2022/12/12 13:26:39;;;;;;;6.07;4.85;;;18.00;59.70;;;;;;4995681;28;20578;-69
2022/12/12 13:29:17;;;;;;;4.28;3.97;;;18.00;59.70;;;;;;4996172;28;20226;-69
2022/12/12 13:32:22;;;;;;;6.65;4.75;;;18.00;59.70;;;;;;4996773;28;20186;-69
2022/12/12 13:34:53;;;;;;;7.57;4.72;;;18.00;59.90;;;;;;4999304;28;20186;-69
2022/12/12 13:37:22;;;;;;;6.63;4.53;;;17.90;60.30;;;;;;4995819;28;20191;-69
2022/12/12 13:39:58;;;;;;;8.50;5.28;;;18.00;60.40;;;;;;4995767;28;20226;-69
2022/12/12 13:42:46;;;;;;;4.70;4.30;;;18.00;60.40;;;;;;4995669;28;20650;-69
2022/12/12 13:45:43;;;;;;;5.95;4.47;;;18.00;60.70;;;;;;4995213;28;20241;-69
2022/12/12 13:48:33;;;;;;;7.25;4.82;;;18.00;60.80;;;;;;4961239;28;20689;-69
2022/12/12 13:51:35;;;;;;;5.35;4.75;;;17.90;61.00;;;;;;4995610;28;20197;-69
2022/12/12 13:54:39;;;;;;;5.30;4.70;;;17.80;61.20;;;;;;4995476;28;20210;-69
2022/12/12 13:57:11;;;;;;;5.07;4.63;;;17.80;61.20;;;;;;4995453;28;20194;-69
2022/12/12 14:00:07;;;;;;;8.05;4.85;;;17.80;61.40;;;;;;4995454;28;20222;-69
2022/12/12 14:02:37;;;;;;;5.18;4.78;;;17.80;61.50;;;;;;4982712;28;20214;-69
2022/12/12 14:05:11;;;;;;;5.70;5.10;;;17.80;61.60;;;;;;4995186;28;20213;-69
2022/12/12 14:07:39;;;;;;;7.47;5.30;;;17.70;61.50;;;;;;4995238;28;20190;-69
2022/12/12 14:10:18;;;;;;;10.13;5.97;;;17.70;61.40;;;;;;4994770;28;20594;-69
2022/12/12 14:12:45;;;;;;;5.85;5.05;;;17.70;61.50;;;;;;4994281;28;20190;-69
2022/12/12 14:15:20;;;;;;;6.80;5.57;;;17.70;61.50;;;;;;4995081;28;20202;-69
2022/12/12 14:17:57;;;;;;;6.50;5.43;;;17.70;61.40;;;;;;4995066;28;20244;-69
2022/12/12 14:20:27;;;;;;;5.60;5.10;;;17.70;61.40;;;;;;4995056;28;20536;-69
2022/12/12 14:23:22;;;;;;;6.40;5.20;;;17.70;61.30;;;;;;4994692;28;20191;-69
2022/12/12 14:25:49;;;;;;;5.30;4.90;;;17.70;61.20;;;;;;4994858;28;20232;-69
2022/12/12 14:28:19;;;;;;;7.18;5.22;;;17.70;61.20;;;;;;4994793;28;20230;-69
2022/12/12 14:30:54;;;;;;;6.25;4.90;;;17.70;61.30;;;;;;4994857;28;20193;-69
2022/12/12 14:33:58;;;;;;;5.28;4.78;;;17.70;61.10;;;;;;4994775;28;20557;-70
2022/12/12 14:37:07;;;;;;;15.70;5.88;;;17.70;61.20;;;;;;4998741;28;20197;-70
2022/12/12 14:40:01;;;;;;;16.27;5.97;;;17.80;62.80;;;;;;4999485;28;20230;-69
2022/12/12 14:42:42;;;;;;;12.73;5.82;;;17.90;64.10;;;;;;5000847;28;20194;-69
2022/12/12 14:45:30;;;;;;;12.45;5.47;;;18.20;65.40;;;;;;5000973;28;20597;-69
2022/12/12 14:48:26;;;;;;;9.63;5.60;;;18.40;66.10;;;;;;5001247;28;20210;-69
2022/12/12 14:50:59;;;;;;;14.88;5.20;;;18.70;66.40;;;;;;4967051;28;20673;-69
2022/12/12 14:53:32;;;;;;;20.52;5.60;;;18.90;66.30;;;;;;5000263;28;20252;-69
2022/12/12 14:56:01;;;;;;;11.40;5.38;;;19.00;65.80;;;;;;4995917;28;20202;-68
2022/12/12 14:58:31;;;;;;;10.90;5.72;;;19.00;65.00;;;;;;4994549;28;20305;-68
2022/12/12 15:01:00;;;;;;;11.38;5.20;;;19.00;64.40;;;;;;4994450;28;20214;-68
2022/12/12 15:03:34;;;;;;;7.88;5.47;;;19.00;63.90;;;;;;4994530;28;20196;-69
2022/12/12 15:06:25;;;;;;;13.85;6.03;;;19.10;63.70;;;;;;4994586;28;20265;-68
2022/12/12 15:08:53;;;;;;;15.82;5.60;;;19.20;63.30;;;;;;4997589;28;20828;-68
2022/12/12 15:11:23;;;;;;;10.05;5.15;;;19.20;63.00;;;;;;4996127;28;20209;-68
2022/12/12 15:13:52;;;;;;;11.80;5.38;;;19.20;62.90;;;;;;4996204;28;20670;-68
2022/12/12 15:16:20;;;;;;;13.95;6.05;;;19.20;62.80;;;;;;4996638;28;20215;-68
2022/12/12 15:18:47;;;;;;;11.57;4.47;;;19.30;62.70;;;;;;4996270;28;20221;-68
2022/12/12 15:21:16;;;;;;;8.55;5.32;;;19.40;62.90;;;;;;4995961;28;20220;-68
2022/12/12 15:23:44;;;;;;;9.13;4.93;;;19.40;63.10;;;;;;4997170;28;20206;-68
2022/12/12 15:26:17;;;;;;;5.30;4.68;;;19.50;63.10;;;;;;5000650;28;20222;-68
2022/12/12 15:28:46;;;;;;;8.45;5.13;;;19.60;64.00;;;;;;5000882;28;20233;-68
2022/12/12 15:31:15;;;;;;;9.77;5.22;;;19.70;63.30;;;;;;5000566;28;20212;-68
2022/12/12 15:33:42;;;;;;;5.95;4.50;;;19.70;63.10;;;;;;5000362;28;20680;-68
2022/12/12 15:36:18;;;;;;;7.10;4.78;;;19.80;63.00;;;;;;5000538;28;20252;-68
2022/12/12 15:39:03;;;;;;;7.97;4.68;;;19.80;62.90;;;;;;5000035;28;20233;-68
2022/12/12 15:41:32;;;;;;;7.40;4.75;;;19.90;63.00;;;;;;4999945;28;20665;-69
2022/12/12 15:44:00;;;;;;;8.38;4.60;;;19.90;62.80;;;;;;4997908;28;20298;-69
2022/12/12 15:46:30;;;;;;;10.88;4.65;;;19.90;62.80;;;;;;4997736;28;20240;-68
2022/12/12 15:48:56;;;;;;;5.00;4.50;;;19.90;62.80;;;;;;4997977;28;20226;-68
2022/12/12 15:51:29;;;;;;;6.43;4.28;;;19.90;62.90;;;;;;4997718;28;20210;-70
2022/12/12 15:53:58;;;;;;;6.55;4.68;;;20.00;63.00;;;;;;4997381;28;20198;-70
2022/12/12 15:56:28;;;;;;;10.68;4.50;;;20.10;62.70;;;;;;4997374;28;20684;-69
2022/12/12 15:59:13;;;;;;;7.18;4.72;;;20.10;62.30;;;;;;4997541;28;20233;-69
2022/12/12 16:01:40;;;;;;;9.98;4.40;;;20.10;61.90;;;;;;4997310;28;20674;-69
2022/12/12 16:04:24;;;;;;;4.90;4.25;;;20.10;61.90;;;;;;4997529;28;20198;-69
2022/12/12 16:06:51;;;;;;;5.75;4.18;;;20.10;61.80;;;;;;4997451;28;20218;-69
2022/12/12 16:09:20;;;;;;;8.32;3.90;;;20.10;61.50;;;;;;4997573;28;20245;-69
2022/12/12 16:11:48;;;;;;;5.72;4.00;;;20.20;61.20;;;;;;4997413;28;20213;-69
2022/12/12 16:14:31;;;;;;;6.82;3.88;;;20.20;60.90;;;;;;4997075;28;20700;-69
2022/12/12 16:17:02;;;;;;;4.53;4.07;;;20.20;60.60;;;;;;4997348;28;20193;-71
2022/12/12 16:19:39;;;;;;;8.13;3.95;;;20.10;60.20;;;;;;4997224;28;20218;-70
2022/12/12 16:22:12;;;;;;;8.88;3.63;;;20.10;59.90;;;;;;4997256;28;20190;-70
2022/12/12 16:24:47;;;;;;;33.20;16.17;;;20.10;59.90;;;;;;4997192;28;20183;-71
2022/12/12 16:27:14;;;;;;;43.67;14.40;;;19.90;55.20;;;;;;4997105;28;20554;-70
2022/12/12 16:29:41;;;;;;;26.83;13.18;;;19.20;49.00;;;;;;4997055;28;20589;-72
2022/12/12 16:32:12;;;;;;;32.33;13.88;;;18.60;45.40;;;;;;4996759;28;20206;-75
2022/12/12 16:34:38;;;;;;;21.35;12.60;;;18.10;43.10;;;;;;4997013;28;20244;-74
2022/12/12 16:37:09;;;;;;;20.08;11.18;;;18.10;45.10;;;;;;4995882;28;20253;-72
2022/12/12 16:39:36;;;;;;;23.75;11.02;;;18.30;45.80;;;;;;4997107;28;20233;-74
2022/12/12 16:42:12;;;;;;;22.27;11.35;;;18.60;46.50;;;;;;4997030;28;20198;-74
2022/12/12 16:44:39;;;;;;;18.83;9.30;;;18.80;47.10;;;;;;4999249;28;20186;-74
2022/12/12 16:47:15;;;;;;;20.70;9.75;;;18.90;47.10;;;;;;4996422;28;20705;-75
2022/12/12 16:49:42;;;;;;;17.27;10.00;;;19.00;47.20;;;;;;4996687;28;20253;-74
2022/12/12 16:52:11;;;;;;;11.77;9.32;;;19.10;47.00;;;;;;4996320;28;20613;-72
2022/12/12 16:54:38;;;;;;;14.60;10.70;;;19.10;46.10;;;;;;4996592;28;20191;-71
2022/12/12 16:57:06;;;;;;;10.55;8.88;;;18.30;37.00;;;;;;4996595;28;20202;-71
2022/12/12 16:59:32;;;;;;;12.15;9.20;;;17.10;34.10;;;;;;4996769;28;20265;-71
2022/12/12 17:01:59;;;;;;;11.55;10.38;;;16.10;32.20;;;;;;4996177;28;20273;-70
2022/12/12 17:04:26;;;;;;;12.90;11.60;;;15.40;31.00;;;;;;4996422;28;20210;-70
2022/12/12 17:06:53;;;;;;;15.05;13.45;;;14.80;30.10;;;;;;4996009;28;20713;-70
2022/12/12 17:09:20;;;;;;;12.88;7.85;;;14.40;29.40;;;;;;4996230;28;20231;-70
2022/12/12 17:11:47;;;;;;;11.60;7.20;;;14.80;32.90;;;;;;4996460;28;20729;-70
2022/12/12 17:14:19;;;;;;;12.80;7.28;;;15.60;34.70;;;;;;4996231;28;20229;-70
2022/12/12 17:16:46;;;;;;;13.35;7.10;;;16.30;35.50;;;;;;4996298;28;20191;-70
2022/12/12 17:19:13;;;;;;;12.75;6.57;;;16.70;35.80;;;;;;4996062;28;20245;-70
2022/12/12 17:21:39;;;;;;;8.27;6.38;;;17.10;36.00;;;;;;4996127;28;20286;-71
2022/12/12 17:24:08;;;;;;;7.20;5.93;;;17.40;36.10;;;;;;4995769;28;20210;-71
2022/12/12 17:26:36;;;;;;;11.38;6.68;;;17.60;36.20;;;;;;4995910;28;20222;-71
2022/12/12 17:29:03;;;;;;;8.30;5.78;;;17.80;36.40;;;;;;4996111;28;20226;-71
2022/12/12 17:31:31;;;;;;;7.35;5.70;;;18.00;36.50;;;;;;4995900;28;20202;-71
2022/12/12 17:33:58;;;;;;;5.90;5.25;;;18.10;36.50;;;;;;4995562;28;20693;-71
2022/12/12 17:36:25;;;;;;;10.57;5.78;;;18.20;36.40;;;;;;4995825;28;20206;-71
2022/12/12 17:38:52;;;;;;;6.45;5.20;;;18.30;36.50;;;;;;4995405;28;20593;-70
2022/12/12 17:41:19;;;;;;;21.60;7.05;;;18.40;36.50;;;;;;4995744;28;20206;-70
2022/12/12 17:43:46;;;;;;;16.98;10.43;;;18.60;37.20;;;;;;4995861;28;20209;-70
2022/12/12 17:46:16;;;;;;;11.95;10.40;;;17.50;30.10;;;;;;4995898;28;20226;-72
2022/12/12 17:48:46;;;;;;;35.20;8.65;;;15.60;27.40;;;;;;4996460;28;20229;-72
2022/12/12 17:51:14;;;;;;;22.55;7.47;;;14.80;29.00;;;;;;4996645;28;20198;-70
2022/12/12 17:53:41;;;;;;;18.58;8.45;;;15.30;31.00;;;;;;4995456;28;20211;-73
2022/12/12 17:56:10;;;;;;;13.70;8.23;;;16.10;32.30;;;;;;4995703;28;20221;-71
2022/12/12 17:58:39;;;;;;;22.23;7.60;;;16.70;33.10;;;;;;4999866;28;20234;-71
2022/12/12 18:01:10;;;;;;;17.92;6.78;;;17.20;33.60;;;;;;4997379;28;20218;-71